createdAt,value
2018-08-22T00:00:06.317Z,0.00
2018-08-22T00:01:06.300Z,0.00
2018-08-22T00:02:06.288Z,0.00
2018-08-22T00:03:06.268Z,0.00
2018-08-22T00:04:06.260Z,0.00
2018-08-22T00:05:06.241Z,0.00
2018-08-22T00:06:06.224Z,0.00
2018-08-22T00:07:06.208Z,0.00
2018-08-22T00:08:06.196Z,0.00
2018-08-22T00:09:06.302Z,0.00
2018-08-22T00:10:06.167Z,0.00
2018-08-22T00:11:06.149Z,0.00
2018-08-22T00:12:06.137Z,0.00
2018-08-22T00:13:06.121Z,0.00
2018-08-22T00:14:06.105Z,0.00
2018-08-22T00:15:06.138Z,0.00
2018-08-22T00:16:06.074Z,0.00
2018-08-22T00:17:06.065Z,0.00
2018-08-22T00:18:06.055Z,0.00
2018-08-22T00:19:06.031Z,0.00
2018-08-22T00:20:06.015Z,0.00
2018-08-22T00:21:06.000Z,0.00
2018-08-22T00:22:05.986Z,0.00
2018-08-22T00:23:05.972Z,0.00
2018-08-22T00:24:05.957Z,0.00
2018-08-22T00:25:05.957Z,0.00
2018-08-22T00:26:05.930Z,0.00
2018-08-22T00:27:05.922Z,0.00
2018-08-22T00:28:05.898Z,0.00
2018-08-22T00:29:05.888Z,0.00
2018-08-22T00:30:05.869Z,0.00
2018-08-22T00:31:05.871Z,0.00
2018-08-22T00:32:05.838Z,0.00
2018-08-22T00:33:05.831Z,0.00
2018-08-22T00:34:05.808Z,0.00
2018-08-22T00:35:05.800Z,0.00
2018-08-22T00:36:05.779Z,0.00
2018-08-22T00:37:05.765Z,0.00
2018-08-22T00:38:05.757Z,0.00
2018-08-22T00:39:05.737Z,0.00
2018-08-22T00:40:05.719Z,0.00
2018-08-22T00:41:05.704Z,0.00
2018-08-22T00:42:05.691Z,0.00
2018-08-22T00:43:05.675Z,0.00
2018-08-22T00:44:05.659Z,0.00
2018-08-22T00:45:05.649Z,0.00
2018-08-22T00:46:05.640Z,0.00
2018-08-22T00:47:05.624Z,0.00
2018-08-22T00:48:05.600Z,0.00
2018-08-22T00:49:05.586Z,0.00
2018-08-22T00:50:05.575Z,0.00
2018-08-22T00:51:05.556Z,0.00
2018-08-22T00:52:05.544Z,0.00
2018-08-22T00:53:05.526Z,0.00
2018-08-22T00:54:05.511Z,0.00
2018-08-22T00:55:05.500Z,0.00
2018-08-22T00:56:05.483Z,0.00
2018-08-22T00:57:05.467Z,0.00
2018-08-22T00:58:05.454Z,0.00
2018-08-22T00:59:05.438Z,0.00
2018-08-22T01:00:05.427Z,0.00
2018-08-22T01:01:05.409Z,0.00
2018-08-22T01:02:05.393Z,0.00
2018-08-22T01:03:05.384Z,0.00
2018-08-22T01:04:05.364Z,0.00
2018-08-22T01:05:05.358Z,0.00
2018-08-22T01:06:05.335Z,0.00
2018-08-22T01:07:05.321Z,0.00
2018-08-22T01:08:05.308Z,0.00
2018-08-22T01:09:05.292Z,0.00
2018-08-22T01:10:05.278Z,0.00
2018-08-22T01:11:05.264Z,0.00
2018-08-22T01:12:05.246Z,0.00
2018-08-22T01:13:05.232Z,0.00
2018-08-22T01:14:05.216Z,0.00
2018-08-22T01:15:05.204Z,0.00
2018-08-22T01:16:05.189Z,0.00
2018-08-22T01:17:05.173Z,0.00
2018-08-22T01:18:05.158Z,0.00
2018-08-22T01:19:05.144Z,0.00
2018-08-22T01:20:05.129Z,0.00
2018-08-22T01:21:05.115Z,0.00
2018-08-22T01:22:05.099Z,0.00
2018-08-22T01:23:05.086Z,0.00
2018-08-22T01:24:05.068Z,0.00
2018-08-22T01:25:05.056Z,0.00
2018-08-22T01:26:05.041Z,0.00
2018-08-22T01:27:05.027Z,0.00
2018-08-22T01:28:05.016Z,0.00
2018-08-22T01:29:04.996Z,0.00
2018-08-22T01:30:04.981Z,0.00
2018-08-22T01:31:04.976Z,0.00
2018-08-22T01:32:04.954Z,0.00
2018-08-22T01:33:04.936Z,0.00
2018-08-22T01:34:04.923Z,0.00
2018-08-22T01:35:04.910Z,0.00
2018-08-22T01:36:04.893Z,0.00
2018-08-22T01:37:04.876Z,0.00
2018-08-22T01:38:04.864Z,0.00
2018-08-22T01:39:04.849Z,0.00
2018-08-22T01:40:04.832Z,0.00
2018-08-22T01:41:04.818Z,0.00
2018-08-22T01:42:04.803Z,0.00
2018-08-22T01:43:04.789Z,0.00
2018-08-22T01:44:04.771Z,0.00
2018-08-22T01:45:04.767Z,0.00
2018-08-22T01:46:04.742Z,0.00
2018-08-22T01:47:04.731Z,0.00
2018-08-22T01:48:04.713Z,0.00
2018-08-22T01:49:04.702Z,0.00
2018-08-22T01:50:04.683Z,0.00
2018-08-22T01:51:04.671Z,0.00
2018-08-22T01:52:04.654Z,0.00
2018-08-22T01:53:04.643Z,0.00
2018-08-22T01:54:04.623Z,0.00
2018-08-22T01:55:04.609Z,0.00
2018-08-22T01:56:04.599Z,0.00
2018-08-22T01:57:04.579Z,0.00
2018-08-22T01:58:04.565Z,0.00
2018-08-22T01:59:04.552Z,0.00
2018-08-22T02:00:04.536Z,0.00
2018-08-22T02:01:04.522Z,0.00
2018-08-22T02:02:04.507Z,0.00
2018-08-22T02:03:04.493Z,0.00
2018-08-22T02:04:04.477Z,0.00
2018-08-22T02:05:04.465Z,0.00
2018-08-22T02:06:04.450Z,0.00
2018-08-22T02:07:04.434Z,0.00
2018-08-22T02:08:04.417Z,0.00
2018-08-22T02:09:04.402Z,0.00
2018-08-22T02:10:04.389Z,0.00
2018-08-22T02:11:04.374Z,0.00
2018-08-22T02:12:04.359Z,0.00
2018-08-22T02:13:04.342Z,0.00
2018-08-22T02:14:04.327Z,0.00
2018-08-22T02:15:04.314Z,0.00
2018-08-22T02:16:04.297Z,0.00
2018-08-22T02:17:04.283Z,0.00
2018-08-22T02:18:04.266Z,0.00
2018-08-22T02:19:04.259Z,0.00
2018-08-22T02:20:04.244Z,0.00
2018-08-22T02:21:04.223Z,0.00
2018-08-22T02:22:04.211Z,0.00
2018-08-22T02:23:04.200Z,0.00
2018-08-22T02:24:04.179Z,0.00
2018-08-22T02:25:04.197Z,0.00
2018-08-22T02:26:04.149Z,0.00
2018-08-22T02:27:04.139Z,0.00
2018-08-22T02:28:04.119Z,0.00
2018-08-22T02:29:04.106Z,0.00
2018-08-22T02:30:04.106Z,0.00
2018-08-22T02:31:04.075Z,0.00
2018-08-22T02:32:04.065Z,0.00
2018-08-22T02:33:04.046Z,0.00
2018-08-22T02:34:04.036Z,0.00
2018-08-22T02:35:04.018Z,0.00
2018-08-22T02:36:04.002Z,0.00
2018-08-22T02:37:03.986Z,0.00
2018-08-22T02:38:03.972Z,0.00
2018-08-22T02:39:03.957Z,0.00
2018-08-22T02:40:04.744Z,0.00
2018-08-22T02:41:03.928Z,0.00
2018-08-22T02:42:03.913Z,0.00
2018-08-22T02:43:03.898Z,0.00
2018-08-22T02:44:03.882Z,0.00
2018-08-22T02:45:03.871Z,0.00
2018-08-22T02:46:03.853Z,0.00
2018-08-22T02:47:03.837Z,0.00
2018-08-22T02:48:03.823Z,0.00
2018-08-22T02:49:03.808Z,0.00
2018-08-22T02:50:03.793Z,0.00
2018-08-22T02:51:03.778Z,0.00
2018-08-22T02:52:03.762Z,0.00
2018-08-22T02:53:03.756Z,0.00
2018-08-22T02:54:03.736Z,0.00
2018-08-22T02:55:03.720Z,0.00
2018-08-22T02:56:03.704Z,0.00
2018-08-22T02:57:03.686Z,0.00
2018-08-22T02:58:03.675Z,0.00
2018-08-22T02:59:03.659Z,0.00
2018-08-22T03:00:03.643Z,0.00
2018-08-22T03:01:03.631Z,0.00
2018-08-22T03:02:03.615Z,0.00
2018-08-22T03:03:03.599Z,0.00
2018-08-22T03:04:03.585Z,0.00
2018-08-22T03:05:03.572Z,0.00
2018-08-22T03:06:03.553Z,0.00
2018-08-22T03:07:03.546Z,0.00
2018-08-22T03:08:03.523Z,0.00
2018-08-22T03:09:03.508Z,0.00
2018-08-22T03:10:03.501Z,0.00
2018-08-22T03:11:03.479Z,0.00
2018-08-22T03:12:03.464Z,0.00
2018-08-22T03:13:03.448Z,0.00
2018-08-22T03:14:03.433Z,0.00
2018-08-22T03:15:03.420Z,0.00
2018-08-22T03:16:03.404Z,0.00
2018-08-22T03:17:03.399Z,0.00
2018-08-22T03:18:03.373Z,0.00
2018-08-22T03:19:03.356Z,0.00
2018-08-22T03:20:03.344Z,0.00
2018-08-22T03:21:03.327Z,0.00
2018-08-22T03:22:03.311Z,0.00
2018-08-22T03:23:03.297Z,0.00
2018-08-22T03:24:03.281Z,0.00
2018-08-22T03:25:03.277Z,0.00
2018-08-22T03:26:03.262Z,0.00
2018-08-22T03:27:03.237Z,0.00
2018-08-22T03:28:03.223Z,0.00
2018-08-22T03:29:03.209Z,0.00
2018-08-22T03:30:03.200Z,0.00
2018-08-22T03:31:03.180Z,0.00
2018-08-22T03:32:03.165Z,0.00
2018-08-22T03:33:03.145Z,0.00
2018-08-22T03:34:03.137Z,0.00
2018-08-22T03:35:03.118Z,0.00
2018-08-22T03:36:03.102Z,0.00
2018-08-22T03:37:03.085Z,0.00
2018-08-22T03:38:03.071Z,0.00
2018-08-22T03:39:03.056Z,0.00
2018-08-22T03:40:03.038Z,0.00
2018-08-22T03:41:03.025Z,0.00
2018-08-22T03:42:03.009Z,0.00
2018-08-22T03:43:02.997Z,0.00
2018-08-22T03:44:02.977Z,0.00
2018-08-22T03:45:02.962Z,0.00
2018-08-22T03:46:02.951Z,0.00
2018-08-22T03:47:02.937Z,0.00
2018-08-22T03:48:02.921Z,0.00
2018-08-22T03:49:02.907Z,0.00
2018-08-22T03:50:02.891Z,0.00
2018-08-22T03:51:02.871Z,0.00
2018-08-22T03:52:02.860Z,0.00
2018-08-22T03:53:02.842Z,0.00
2018-08-22T03:54:02.830Z,0.00
2018-08-22T03:55:02.825Z,0.00
2018-08-22T03:56:02.796Z,0.00
2018-08-22T03:57:02.782Z,0.00
2018-08-22T03:58:02.766Z,0.00
2018-08-22T03:59:02.752Z,0.00
2018-08-22T04:00:02.737Z,0.00
2018-08-22T04:01:02.721Z,0.00
2018-08-22T04:02:02.711Z,0.00
2018-08-22T04:03:02.691Z,0.00
2018-08-22T04:04:02.676Z,4.00
2018-08-22T04:05:02.660Z,0.00
2018-08-22T04:06:02.652Z,0.00
2018-08-22T04:07:02.631Z,0.00
2018-08-22T04:08:02.615Z,4.00
2018-08-22T04:09:02.600Z,0.00
2018-08-22T04:10:02.583Z,0.00
2018-08-22T04:11:02.570Z,4.00
2018-08-22T04:12:02.554Z,4.00
2018-08-22T04:13:02.538Z,4.00
2018-08-22T04:14:02.527Z,4.00
2018-08-22T04:15:02.509Z,4.00
2018-08-22T04:16:02.493Z,4.00
2018-08-22T04:17:02.478Z,4.00
2018-08-22T04:18:02.461Z,4.00
2018-08-22T04:19:02.454Z,4.00
2018-08-22T04:20:02.430Z,8.00
2018-08-22T04:21:02.415Z,8.00
2018-08-22T04:22:02.402Z,8.00
2018-08-22T04:23:02.393Z,8.00
2018-08-22T04:24:02.369Z,8.00
2018-08-22T04:25:02.354Z,8.00
2018-08-22T04:26:02.340Z,12.00
2018-08-22T04:27:02.327Z,12.00
2018-08-22T04:28:02.308Z,12.00
2018-08-22T04:29:02.293Z,16.00
2018-08-22T04:30:02.276Z,16.00
2018-08-22T04:31:02.316Z,16.00
2018-08-22T04:32:02.248Z,16.00
2018-08-22T04:33:02.230Z,16.00
2018-08-22T04:34:02.215Z,20.00
2018-08-22T04:35:02.199Z,20.00
2018-08-22T04:36:02.184Z,20.00
2018-08-22T04:37:02.169Z,24.00
2018-08-22T04:38:02.155Z,24.00
2018-08-22T04:39:02.138Z,28.00
2018-08-22T04:40:02.131Z,24.00
2018-08-22T04:41:02.108Z,28.00
2018-08-22T04:42:02.092Z,28.00
2018-08-22T04:43:02.077Z,32.00
2018-08-22T04:44:02.069Z,32.00
2018-08-22T04:45:02.047Z,32.00
2018-08-22T04:46:02.033Z,36.00
2018-08-22T04:47:02.016Z,36.00
2018-08-22T04:48:02.000Z,36.00
2018-08-22T04:49:01.983Z,40.00
2018-08-22T04:50:01.970Z,40.00
2018-08-22T04:51:01.953Z,40.00
2018-08-22T04:52:01.937Z,40.00
2018-08-22T04:53:01.923Z,44.00
2018-08-22T04:54:01.909Z,44.00
2018-08-22T04:55:01.895Z,48.00
2018-08-22T04:56:01.877Z,48.00
2018-08-22T04:57:01.860Z,52.00
2018-08-22T04:58:01.844Z,52.00
2018-08-22T04:59:01.828Z,56.00
2018-08-22T05:00:01.813Z,56.00
2018-08-22T05:01:01.797Z,60.00
2018-08-22T05:02:01.787Z,64.00
2018-08-22T05:03:01.776Z,64.00
2018-08-22T05:04:01.754Z,64.00
2018-08-22T05:05:01.736Z,68.00
2018-08-22T05:06:01.749Z,68.00
2018-08-22T05:07:01.708Z,68.00
2018-08-22T05:08:01.689Z,72.00
2018-08-22T05:09:01.676Z,76.00
2018-08-22T05:10:01.660Z,76.00
2018-08-22T05:11:01.648Z,76.00
2018-08-22T05:12:01.632Z,84.00
2018-08-22T05:13:01.616Z,84.00
2018-08-22T05:14:01.601Z,84.00
2018-08-22T05:15:01.582Z,88.00
2018-08-22T05:16:01.565Z,92.00
2018-08-22T05:17:01.557Z,96.00
2018-08-22T05:18:01.535Z,100.00
2018-08-22T05:19:01.520Z,104.00
2018-08-22T05:20:01.508Z,108.00
2018-08-22T05:21:01.502Z,116.00
2018-08-22T05:22:01.473Z,120.00
2018-08-22T05:23:01.460Z,124.00
2018-08-22T05:24:01.444Z,132.00
2018-08-22T05:25:01.433Z,136.00
2018-08-22T05:26:01.413Z,144.00
2018-08-22T05:27:01.397Z,148.00
2018-08-22T05:28:01.381Z,152.00
2018-08-22T05:29:01.370Z,160.00
2018-08-22T05:30:01.371Z,156.00
2018-08-22T05:31:01.335Z,156.00
2018-08-22T05:32:01.333Z,156.00
2018-08-22T05:33:01.305Z,156.00
2018-08-22T05:34:01.295Z,152.00
2018-08-22T05:35:01.281Z,156.00
2018-08-22T05:36:01.258Z,156.00
2018-08-22T05:37:01.242Z,156.00
2018-08-22T05:38:01.229Z,156.00
2018-08-22T05:39:01.212Z,152.00
2018-08-22T05:40:01.200Z,156.00
2018-08-22T05:41:01.182Z,152.00
2018-08-22T05:42:01.170Z,152.00
2018-08-22T05:43:01.153Z,156.00
2018-08-22T05:44:01.137Z,164.00
2018-08-22T05:45:01.120Z,172.00
2018-08-22T05:46:01.105Z,180.00
2018-08-22T05:47:01.090Z,188.00
2018-08-22T05:48:01.079Z,192.00
2018-08-22T05:49:01.067Z,196.00
2018-08-22T05:50:01.044Z,204.00
2018-08-22T05:51:01.030Z,208.00
2018-08-22T05:52:01.013Z,208.00
2018-08-22T05:53:00.999Z,212.00
2018-08-22T05:54:00.987Z,216.00
2018-08-22T05:55:00.974Z,216.00
2018-08-22T05:56:00.954Z,220.00
2018-08-22T05:57:00.940Z,220.00
2018-08-22T05:58:00.922Z,228.00
2018-08-22T05:59:00.908Z,228.00
2018-08-22T06:00:00.895Z,244.00
2018-08-22T06:01:00.877Z,252.00
2018-08-22T06:02:00.866Z,260.00
2018-08-22T06:03:00.849Z,264.00
2018-08-22T06:04:00.839Z,272.00
2018-08-22T06:05:00.820Z,276.00
2018-08-22T06:06:00.803Z,284.00
2018-08-22T06:07:00.791Z,288.00
2018-08-22T06:08:00.772Z,284.00
2018-08-22T06:09:00.798Z,288.00
2018-08-22T06:10:00.745Z,284.00
2018-08-22T06:11:00.726Z,284.00
2018-08-22T06:12:00.716Z,288.00
2018-08-22T06:13:00.696Z,296.00
2018-08-22T06:14:00.684Z,296.00
2018-08-22T06:15:00.667Z,300.00
2018-08-22T06:16:00.652Z,308.00
2018-08-22T06:17:00.635Z,308.00
2018-08-22T06:18:00.621Z,308.00
2018-08-22T06:19:00.606Z,312.00
2018-08-22T06:20:00.595Z,316.00
2018-08-22T06:21:00.588Z,320.00
2018-08-22T06:22:00.562Z,328.00
2018-08-22T06:23:00.548Z,324.00
2018-08-22T06:24:00.532Z,348.00
2018-08-22T06:25:00.517Z,348.00
2018-08-22T06:26:00.504Z,368.00
2018-08-22T06:27:00.488Z,372.00
2018-08-22T06:28:00.471Z,388.00
2018-08-22T06:29:00.455Z,384.00
2018-08-22T06:30:00.442Z,384.00
2018-08-22T06:31:00.428Z,388.00
2018-08-22T06:32:00.415Z,396.00
2018-08-22T06:33:00.456Z,404.00
2018-08-22T06:34:00.382Z,420.00
2018-08-22T06:35:00.369Z,424.00
2018-08-22T06:36:00.364Z,436.00
2018-08-22T06:37:00.340Z,444.00
2018-08-22T06:38:00.325Z,440.00
2018-08-22T06:39:00.310Z,448.00
2018-08-22T06:40:00.295Z,456.00
2018-08-22T06:41:00.304Z,484.00
2018-08-22T06:42:00.266Z,480.00
2018-08-22T06:43:00.251Z,488.00
2018-08-22T06:44:00.236Z,500.00
2018-08-22T06:45:00.228Z,548.00
2018-08-22T06:46:00.209Z,576.00
2018-08-22T06:47:00.193Z,588.00
2018-08-22T06:48:00.178Z,592.00
2018-08-22T06:49:00.169Z,584.00
2018-08-22T06:50:00.149Z,552.00
2018-08-22T06:51:00.133Z,524.00
2018-08-22T06:52:00.127Z,520.00
2018-08-22T06:53:00.112Z,492.00
2018-08-22T06:54:00.099Z,472.00
2018-08-22T06:55:00.073Z,456.00
2018-08-22T06:56:00.060Z,448.00
2018-08-22T06:57:00.084Z,448.00
2018-08-22T06:58:00.031Z,432.00
2018-08-22T06:59:00.018Z,428.00
2018-08-22T07:00:00.005Z,416.00
2018-08-22T07:00:59.990Z,408.00
2018-08-22T07:01:59.972Z,396.00
2018-08-22T07:02:59.961Z,388.00
2018-08-22T07:03:59.941Z,376.00
2018-08-22T07:04:59.930Z,364.00
2018-08-22T07:05:59.912Z,352.00
2018-08-22T07:06:59.900Z,348.00
2018-08-22T07:07:59.911Z,340.00
2018-08-22T07:08:59.869Z,340.00
2018-08-22T07:09:59.858Z,340.00
2018-08-22T07:10:59.841Z,348.00
2018-08-22T07:11:59.826Z,356.00
2018-08-22T07:12:59.814Z,368.00
2018-08-22T07:13:59.810Z,376.00
2018-08-22T07:14:59.784Z,384.00
2018-08-22T07:15:59.768Z,400.00
2018-08-22T07:16:59.755Z,404.00
2018-08-22T07:17:59.738Z,412.00
2018-08-22T07:18:59.727Z,424.00
2018-08-22T07:19:59.713Z,460.00
2018-08-22T07:20:59.770Z,608.00
2018-08-22T07:21:59.681Z,684.00
2018-08-22T07:22:59.668Z,680.00
2018-08-22T07:23:59.654Z,692.00
2018-08-22T07:24:59.641Z,696.00
2018-08-22T07:25:59.626Z,756.00
2018-08-22T07:26:59.610Z,772.00
2018-08-22T07:27:59.596Z,804.00
2018-08-22T07:28:59.582Z,820.00
2018-08-22T07:29:59.615Z,856.00
2018-08-22T07:30:59.561Z,892.00
2018-08-22T07:31:59.547Z,872.00
2018-08-22T07:32:59.527Z,912.00
2018-08-22T07:33:59.512Z,948.00
2018-08-22T07:34:59.497Z,964.00
2018-08-22T07:35:59.485Z,992.00
2018-08-22T07:36:59.468Z,1004.00
2018-08-22T07:37:59.459Z,1020.00
2018-08-22T07:38:59.439Z,1032.00
2018-08-22T07:39:59.426Z,1052.00
2018-08-22T07:40:59.419Z,1076.00
2018-08-22T07:41:59.403Z,1088.00
2018-08-22T07:42:59.384Z,1092.00
2018-08-22T07:43:59.368Z,1096.00
2018-08-22T07:44:59.353Z,1116.00
2018-08-22T07:45:59.341Z,1132.00
2018-08-22T07:46:59.377Z,1136.00
2018-08-22T07:47:59.312Z,1136.00
2018-08-22T07:48:59.298Z,1112.00
2018-08-22T07:49:59.285Z,1084.00
2018-08-22T07:50:59.273Z,1104.00
2018-08-22T07:51:59.257Z,1152.00
2018-08-22T07:52:59.246Z,1172.00
2018-08-22T07:53:59.231Z,1188.00
2018-08-22T07:54:59.218Z,1208.00
2018-08-22T07:55:59.213Z,1144.00
2018-08-22T07:56:59.188Z,1240.00
2018-08-22T07:57:59.176Z,1268.00
2018-08-22T07:58:59.161Z,1288.00
2018-08-22T07:59:59.176Z,1312.00
2018-08-22T08:00:59.138Z,1328.00
2018-08-22T08:01:59.163Z,1348.00
2018-08-22T08:02:59.108Z,1360.00
2018-08-22T08:03:59.095Z,1176.00
2018-08-22T08:04:59.080Z,1408.00
2018-08-22T08:05:59.066Z,1396.00
2018-08-22T08:06:59.051Z,1416.00
2018-08-22T08:07:59.041Z,1428.00
2018-08-22T08:08:59.024Z,1436.00
2018-08-22T08:09:59.011Z,1448.00
2018-08-22T08:10:59.034Z,1444.00
2018-08-22T08:11:58.994Z,1420.00
2018-08-22T08:12:58.973Z,1184.00
2018-08-22T08:13:58.961Z,1224.00
2018-08-22T08:14:58.947Z,1252.00
2018-08-22T08:15:58.931Z,1384.00
2018-08-22T08:16:58.928Z,1348.00
2018-08-22T08:17:58.905Z,1388.00
2018-08-22T08:18:58.891Z,1468.00
2018-08-22T08:19:58.875Z,1556.00
2018-08-22T08:20:58.864Z,1572.00
2018-08-22T08:21:58.851Z,1536.00
2018-08-22T08:22:58.847Z,1496.00
2018-08-22T08:23:58.831Z,1552.00
2018-08-22T08:24:58.814Z,1592.00
2018-08-22T08:25:58.801Z,1604.00
2018-08-22T08:26:58.785Z,1540.00
2018-08-22T08:27:58.772Z,1496.00
2018-08-22T08:28:58.760Z,1640.00
2018-08-22T08:29:58.747Z,1668.00
2018-08-22T08:30:58.735Z,1628.00
2018-08-22T08:31:58.728Z,1644.00
2018-08-22T08:32:58.707Z,1672.00
2018-08-22T08:33:58.705Z,1524.00
2018-08-22T08:34:58.687Z,1684.00
2018-08-22T08:35:58.677Z,1704.00
2018-08-22T08:36:58.658Z,1708.00
2018-08-22T08:37:58.663Z,1572.00
2018-08-22T08:38:58.639Z,1660.00
2018-08-22T08:39:58.619Z,1700.00
2018-08-22T08:40:58.609Z,1716.00
2018-08-22T08:41:58.596Z,1724.00
2018-08-22T08:42:58.582Z,1736.00
2018-08-22T08:43:58.572Z,1716.00
2018-08-22T08:44:58.556Z,1728.00
2018-08-22T08:45:58.542Z,1720.00
2018-08-22T08:46:58.542Z,1728.00
2018-08-22T08:47:58.517Z,1748.00
2018-08-22T08:48:58.534Z,1720.00
2018-08-22T08:49:58.492Z,1752.00
2018-08-22T08:50:58.498Z,1748.00
2018-08-22T08:51:58.469Z,1776.00
2018-08-22T08:52:58.482Z,1768.00
2018-08-22T08:53:58.445Z,1788.00
2018-08-22T08:54:58.435Z,1784.00
2018-08-22T08:55:58.422Z,1884.00
2018-08-22T08:56:58.408Z,1824.00
2018-08-22T08:57:58.396Z,1780.00
2018-08-22T08:58:58.389Z,1780.00
2018-08-22T08:59:58.372Z,1772.00
2018-08-22T09:00:58.370Z,1752.00
2018-08-22T09:01:58.384Z,1832.00
2018-08-22T09:02:58.335Z,1796.00
2018-08-22T09:03:58.512Z,1836.00
2018-08-22T09:04:58.369Z,1848.00
2018-08-22T09:05:58.300Z,1852.00
2018-08-22T09:06:58.290Z,1852.00
2018-08-22T09:07:58.276Z,1848.00
2018-08-22T09:08:58.272Z,1900.00
2018-08-22T09:09:58.259Z,1844.00
2018-08-22T09:10:58.244Z,1852.00
2018-08-22T09:11:58.229Z,1860.00
2018-08-22T09:12:58.215Z,1828.00
2018-08-22T09:13:58.204Z,1812.00
2018-08-22T09:14:58.200Z,1800.00
2018-08-22T09:15:58.180Z,1816.00
2018-08-22T09:16:58.167Z,1832.00
2018-08-22T09:17:58.167Z,1856.00
2018-08-22T09:18:58.154Z,1864.00
2018-08-22T09:19:58.131Z,1844.00
2018-08-22T09:20:58.217Z,1868.00
2018-08-22T09:21:58.117Z,1840.00
2018-08-22T09:22:58.107Z,1828.00
2018-08-22T09:23:58.100Z,1828.00
2018-08-22T09:24:58.084Z,1852.00
2018-08-22T09:25:58.062Z,1892.00
2018-08-22T09:26:58.056Z,1820.00
2018-08-22T09:27:58.045Z,1916.00
2018-08-22T09:28:58.029Z,1908.00
2018-08-22T09:29:58.025Z,1904.00
2018-08-22T09:30:58.012Z,1892.00
2018-08-22T09:31:57.995Z,1924.00
2018-08-22T09:32:57.992Z,1928.00
2018-08-22T09:33:57.984Z,1828.00
2018-08-22T09:34:57.963Z,1844.00
2018-08-22T09:35:57.963Z,1812.00
2018-08-22T09:36:57.964Z,1908.00
2018-08-22T09:37:57.931Z,1948.00
2018-08-22T09:38:57.923Z,1936.00
2018-08-22T09:39:57.932Z,1876.00
2018-08-22T09:40:57.894Z,1912.00
2018-08-22T09:41:57.893Z,1788.00
2018-08-22T09:42:57.870Z,1640.00
2018-08-22T09:43:57.857Z,1536.00
2018-08-22T09:44:57.847Z,1740.00
2018-08-22T09:45:57.839Z,1640.00
2018-08-22T09:46:57.825Z,1576.00
2018-08-22T09:47:57.837Z,1592.00
2018-08-22T09:48:57.810Z,1612.00
2018-08-22T09:49:57.800Z,1760.00
2018-08-22T09:50:57.857Z,1980.00
2018-08-22T09:51:57.772Z,2064.00
2018-08-22T09:52:57.764Z,2040.00
2018-08-22T09:53:57.745Z,1932.00
2018-08-22T09:54:57.740Z,1804.00
2018-08-22T09:55:57.726Z,1656.00
2018-08-22T09:56:57.714Z,1680.00
2018-08-22T09:57:57.700Z,1784.00
2018-08-22T09:58:57.705Z,1844.00
2018-08-22T09:59:57.679Z,1880.00
2018-08-22T10:00:57.671Z,1904.00
2018-08-22T10:01:57.665Z,1940.00
2018-08-22T10:02:57.652Z,1972.00
2018-08-22T10:03:57.634Z,1796.00
2018-08-22T10:04:57.625Z,1912.00
2018-08-22T10:05:57.611Z,2008.00
2018-08-22T10:06:57.642Z,2032.00
2018-08-22T10:07:57.588Z,2008.00
2018-08-22T10:08:57.579Z,1860.00
2018-08-22T10:09:57.682Z,2028.00
2018-08-22T10:10:57.566Z,2008.00
2018-08-22T10:11:57.546Z,1940.00
2018-08-22T10:12:57.533Z,1912.00
2018-08-22T10:13:57.520Z,1932.00
2018-08-22T10:14:57.525Z,1824.00
2018-08-22T10:15:57.517Z,1868.00
2018-08-22T10:16:57.487Z,1808.00
2018-08-22T10:17:57.485Z,1840.00
2018-08-22T10:18:57.468Z,1892.00
2018-08-22T10:19:57.455Z,1776.00
2018-08-22T10:20:57.445Z,1744.00
2018-08-22T10:21:57.433Z,1764.00
2018-08-22T10:22:57.432Z,1468.00
2018-08-22T10:23:57.412Z,1760.00
2018-08-22T10:24:57.401Z,1756.00
2018-08-22T10:25:57.391Z,1880.00
2018-08-22T10:26:57.399Z,1936.00
2018-08-22T10:27:57.368Z,1924.00
2018-08-22T10:28:57.369Z,1868.00
2018-08-22T10:29:57.349Z,1892.00
2018-08-22T10:30:57.338Z,1656.00
2018-08-22T10:31:57.328Z,1760.00
2018-08-22T10:32:57.397Z,1744.00
2018-08-22T10:33:57.306Z,1680.00
2018-08-22T10:34:57.294Z,1616.00
2018-08-22T10:35:57.293Z,1740.00
2018-08-22T10:36:57.272Z,1984.00
2018-08-22T10:37:57.265Z,2068.00
2018-08-22T10:38:57.251Z,2012.00
2018-08-22T10:39:57.240Z,1872.00
2018-08-22T10:40:57.231Z,1984.00
2018-08-22T10:41:57.228Z,1976.00
2018-08-22T10:42:57.224Z,2036.00
2018-08-22T10:43:57.198Z,1832.00
2018-08-22T10:44:57.188Z,1816.00
2018-08-22T10:45:57.182Z,1864.00
2018-08-22T10:46:57.174Z,1804.00
2018-08-22T10:47:57.158Z,1848.00
2018-08-22T10:48:57.146Z,1880.00
2018-08-22T10:49:57.134Z,1904.00
2018-08-22T10:50:57.145Z,1852.00
2018-08-22T10:51:57.116Z,1908.00
2018-08-22T10:52:57.110Z,1860.00
2018-08-22T10:53:57.152Z,1696.00
2018-08-22T10:54:57.081Z,1692.00
2018-08-22T10:55:57.074Z,1788.00
2018-08-22T10:56:57.059Z,1716.00
2018-08-22T10:57:57.049Z,1752.00
2018-08-22T10:58:57.044Z,1644.00
2018-08-22T10:59:57.025Z,1688.00
2018-08-22T11:00:57.015Z,1792.00
2018-08-22T11:01:57.019Z,2116.00
2018-08-22T11:02:56.998Z,1980.00
2018-08-22T11:03:56.989Z,1840.00
2018-08-22T11:04:56.982Z,1896.00
2018-08-22T11:05:56.969Z,2040.00
2018-08-22T11:06:56.962Z,2048.00
2018-08-22T11:07:56.953Z,2004.00
2018-08-22T11:08:56.936Z,1940.00
2018-08-22T11:09:56.942Z,1908.00
2018-08-22T11:10:56.917Z,1988.00
2018-08-22T11:11:56.906Z,1976.00
2018-08-22T11:12:56.894Z,2000.00
2018-08-22T11:13:56.885Z,1636.00
2018-08-22T11:14:56.872Z,1228.00
2018-08-22T11:15:56.973Z,1348.00
2018-08-22T11:16:56.848Z,1356.00
2018-08-22T11:17:56.839Z,1044.00
2018-08-22T11:18:56.828Z,988.00
2018-08-22T11:19:56.826Z,948.00
2018-08-22T11:20:56.805Z,996.00
2018-08-22T11:21:56.801Z,1160.00
2018-08-22T11:22:56.792Z,1780.00
2018-08-22T11:23:56.775Z,1752.00
2018-08-22T11:24:56.764Z,1472.00
2018-08-22T11:25:56.764Z,1272.00
2018-08-22T11:26:56.746Z,1216.00
2018-08-22T11:27:56.742Z,2160.00
2018-08-22T11:28:56.728Z,2136.00
2018-08-22T11:29:56.715Z,980.00
2018-08-22T11:30:56.706Z,980.00
2018-08-22T11:31:56.692Z,2168.00
2018-08-22T11:32:56.688Z,2208.00
2018-08-22T11:33:56.670Z,2076.00
2018-08-22T11:34:56.669Z,2072.00
2018-08-22T11:35:56.655Z,2040.00
2018-08-22T11:36:56.636Z,2072.00
2018-08-22T11:37:56.636Z,2116.00
2018-08-22T11:38:56.619Z,1924.00
2018-08-22T11:39:56.614Z,2120.00
2018-08-22T11:40:56.604Z,2232.00
2018-08-22T11:41:56.595Z,2208.00
2018-08-22T11:42:56.586Z,2220.00
2018-08-22T11:43:56.567Z,1144.00
2018-08-22T11:44:56.554Z,1240.00
2018-08-22T11:45:56.544Z,1044.00
2018-08-22T11:46:56.537Z,836.00
2018-08-22T11:47:56.521Z,832.00
2018-08-22T11:48:56.514Z,892.00
2018-08-22T11:49:56.515Z,988.00
2018-08-22T11:50:56.491Z,2296.00
2018-08-22T11:51:56.480Z,1992.00
2018-08-22T11:52:56.470Z,2360.00
2018-08-22T11:53:56.465Z,2332.00
2018-08-22T11:54:56.454Z,2468.00
2018-08-22T11:55:56.474Z,2504.00
2018-08-22T11:56:56.428Z,2460.00
2018-08-22T11:57:56.416Z,2424.00
2018-08-22T11:58:56.417Z,2460.00
2018-08-22T11:59:56.395Z,2360.00
2018-08-22T12:00:56.387Z,2468.00
2018-08-22T12:01:56.387Z,2220.00
2018-08-22T12:02:56.375Z,2012.00
2018-08-22T12:03:56.356Z,2192.00
2018-08-22T12:04:56.348Z,2264.00
2018-08-22T12:05:56.336Z,1952.00
2018-08-22T12:06:56.332Z,1984.00
2018-08-22T12:07:56.313Z,2176.00
2018-08-22T12:08:56.306Z,2216.00
2018-08-22T12:09:56.295Z,2256.00
2018-08-22T12:10:56.289Z,2356.00
2018-08-22T12:11:56.272Z,2436.00
2018-08-22T12:12:56.267Z,2348.00
2018-08-22T12:13:56.254Z,2300.00
2018-08-22T12:14:56.256Z,2300.00
2018-08-22T12:15:56.252Z,2236.00
2018-08-22T12:16:56.224Z,2184.00
2018-08-22T12:17:56.214Z,2260.00
2018-08-22T12:18:56.205Z,2280.00
2018-08-22T12:19:56.191Z,2300.00
2018-08-22T12:20:56.193Z,2328.00
2018-08-22T12:21:56.173Z,2364.00
2018-08-22T12:22:56.213Z,2372.00
2018-08-22T12:23:56.155Z,2344.00
2018-08-22T12:24:56.149Z,2036.00
2018-08-22T12:25:56.134Z,2048.00
2018-08-22T12:26:56.127Z,2128.00
2018-08-22T12:27:56.113Z,2160.00
2018-08-22T12:28:56.110Z,2216.00
2018-08-22T12:29:56.095Z,2040.00
2018-08-22T12:30:56.085Z,2236.00
2018-08-22T12:31:56.073Z,2292.00
2018-08-22T12:32:56.061Z,2324.00
2018-08-22T12:33:56.053Z,1224.00
2018-08-22T12:34:56.043Z,2192.00
2018-08-22T12:35:56.041Z,908.00
2018-08-22T12:36:56.027Z,1368.00